logo tempoitalia

Diretta Meteo Alliance, Stati Uniti (USA)domenica 30 agosto ore 22:53

Mappa
Sereno 14 °C Sereno 24 Ore: T.min 13 T.max 31
Ponente Ovest/Sud-Ovest Km/h 11.1 Punto di rugiada: 9 °C Umidità: 71% Visibilità: 10 Km
Il sole sorge alle: 06:15 Il sole tramonta alle: 19:28
30 Agosto 2026 22:53 tempo osservato: Sereno Sereno 14 71 1016 vento: Nord O/SO 11.1
30 Agosto 2026 21:53 tempo osservato: Sereno Sereno 16 63 1016 vento: Nord O/NO 11.1
30 Agosto 2026 20:53 tempo osservato: Sereno Sereno 17 59 1016 vento: Nord O/SO 16.7
30 Agosto 2026 19:53 tempo osservato: Sereno Sereno 18 55 1015 vento: Nord O/SO 14.8
30 Agosto 2026 18:53 tempo osservato: Sereno Sereno 24 35 1014 vento: Nord O/SO 20.3
30 Agosto 2026 17:53 tempo osservato: Sereno Sereno 27 32 1014 vento: Nord O 20.3
30 Agosto 2026 16:53 tempo osservato: Sereno Sereno 29 28 1014 vento: Nord O 37
30 Agosto 2026 15:53 tempo osservato: Sereno Sereno 31 22 1013 vento: Nord O/NO 29.6
30 Agosto 2026 14:53 tempo osservato: Sereno Sereno 31 25 1013 vento: Nord O 22.2
30 Agosto 2026 13:53 tempo osservato: Sereno Sereno 29 30 1013 vento: Nord O 24
30 Agosto 2026 12:53 tempo osservato: Sereno Sereno 28 30 1014 vento: Nord O 25.9
30 Agosto 2026 11:53 tempo osservato: Sereno Sereno 29 32 1014 vento: Nord O 33.3
30 Agosto 2026 10:53 tempo osservato: Sereno Sereno 27 36 1014 vento: Nord O/SO 25.9
30 Agosto 2026 09:53 tempo osservato: Sereno Sereno 25 44 1015 vento: Nord O/SO 25.9
30 Agosto 2026 08:53 tempo osservato: Nuvoloso Nuvoloso 21 56 1015 vento: Nord SO 18.5
30 Agosto 2026 07:53 tempo osservato: Sereno Sereno 21 60 1014 vento: Nord SO 11.1
30 Agosto 2026 06:53 tempo osservato: Poco Nuvoloso Poco Nuvoloso 16 82 1014 vento: Nord SO 11.1
30 Agosto 2026 05:53 tempo osservato: Poco Nuvoloso Poco Nuvoloso 14 87 1014 vento: Nord N 0
30 Agosto 2026 04:53 tempo osservato: Sereno Sereno 13 93 1014 vento: Nord S 9.3
30 Agosto 2026 03:53 tempo osservato: Sereno Sereno 14 87 1014 vento: Nord S 7.4
30 Agosto 2026 02:53 tempo osservato: Sereno Sereno 15 82 1013 vento: Nord N 0
30 Agosto 2026 01:53 tempo osservato: Sereno Sereno 14 87 1013 vento: Nord N 5.5
30 Agosto 2026 00:53 tempo osservato: Sereno Sereno 15 82 1013 vento: Nord O/SO 11.1
29 Agosto 2026 23:53 tempo osservato: Sereno Sereno 17 77 1014 vento: Nord S 11.1